Aérodrome :
LOGIN :

S'inscrire | Disclaimer

   EN    FR    IT 

 










Légende :    VFR   VFR Marginal   IFR   IFR Intensif   IFR Très Intensif
Visi : 
Plafond : 
>= 8 km
>= 3000ft
5 à 8 km
1000 à 3000 ft
1500m à 5 km
500 à 1000 ft
800 à 1500m
200 à 500 ft
< 800m
< 200 ft
Symboles :   Orages  Brouillard  Fortes neiges  Fortes précipitations  Vent > 20 kt
SIGMETs :   Divers  Orages  Givrage  Turbulence  Onde Orograph.  Cendres Volcan.






- Altitude de l'aérodrome : 2077 ft
- Code IATA : FMM


EDJA - Memmingen

DERNIER METAR :
  • 151420Z 06006KT 030V090 CAVOK 29/15 Q1013

METARs EXPIRÉS :
  • 151350Z 06007KT CAVOK 29/15 Q1013
  • 151320Z 05006KT 030V090 CAVOK 28/14 Q1014
  • 151250Z 04007KT CAVOK 29/15 Q1014
  • 151220Z 05006KT 020V110 CAVOK 28/15 Q1014
  • 151150Z 07005KT 020V120 CAVOK 28/15 Q1014
  • 151120Z 07006KT 030V110 CAVOK 27/15 Q1014
  • 151050Z 05006KT CAVOK 27/15 Q1015
  • 151020Z 06005KT 020V110 CAVOK 27/14 Q1015
  • 150950Z 07004KT CAVOK 25/14 Q1015

TAF TAF EDJA
Valide du 15 à 15h jusqu'au 16 à 00h UTC


151400Z 1515/1524 06006KT CAVOK
BECMG 1518/1520 21007KT
TEMPO 1521/1523 27020G35KT 4000 TSRA BKN010 BKN045CB



MET'MAP, la Météo Aéronautique d'un coup d'oeil ! - Copyright ORBIFLY Décembre 2007 - Disclaimer

ORBIFLY MET'MAP TEAM :

Programmation & Développement : Alexandra Zaïnal
Sur une idée originale de : Baudouin d'Aumeries
Soutien technique & logistique : Manuel Goepfert
Assistance : Marc-Olivier Méhu




SOURCES & CREDITS :

   NOAA